createdAt,value
2024-03-06T00:01:58.260Z,10.50
2024-03-06T00:04:28.021Z,10.50
2024-03-06T00:06:58.970Z,10.50
2024-03-06T00:09:28.968Z,10.50
2024-03-06T00:11:59.340Z,10.50
2024-03-06T00:14:28.623Z,10.50
2024-03-06T00:16:58.967Z,10.50
2024-03-06T00:19:27.934Z,10.50
2024-03-06T00:21:58.380Z,10.50
2024-03-06T00:24:27.808Z,10.50
2024-03-06T00:26:58.013Z,10.50
2024-03-06T00:29:26.508Z,10.50
2024-03-06T00:31:56.335Z,10.50
2024-03-06T00:34:28.900Z,10.50
2024-03-06T00:36:58.324Z,10.50
2024-03-06T00:39:28.004Z,10.50
2024-03-06T00:41:57.184Z,10.50
2024-03-06T00:44:28.014Z,10.50
2024-03-06T00:46:57.262Z,10.50
2024-03-06T00:49:27.096Z,10.50
2024-03-06T00:51:57.511Z,10.50
2024-03-06T00:54:28.038Z,10.50
2024-03-06T00:56:58.549Z,10.50
2024-03-06T00:59:27.937Z,10.50
2024-03-06T01:01:58.105Z,10.50
2024-03-06T01:04:27.235Z,10.40
2024-03-06T01:06:58.049Z,10.40
2024-03-06T01:09:28.207Z,10.40
2024-03-06T01:11:57.430Z,10.40
2024-03-06T01:14:26.463Z,10.40
2024-03-06T01:16:57.083Z,10.40
2024-03-06T01:19:28.039Z,10.40
2024-03-06T01:21:58.443Z,10.40
2024-03-06T01:24:27.459Z,10.40
2024-03-06T01:26:55.850Z,10.40
2024-03-06T01:29:24.895Z,10.40
2024-03-06T01:31:56.984Z,10.40
2024-03-06T01:34:28.169Z,10.40
2024-03-06T01:36:57.973Z,10.40
2024-03-06T01:39:27.097Z,10.40
2024-03-06T01:41:58.070Z,10.40
2024-03-06T01:44:26.209Z,10.40
2024-03-06T01:46:55.740Z,10.40
2024-03-06T01:49:32.643Z,10.40
2024-03-06T01:52:11.103Z,10.40
2024-03-06T01:54:43.732Z,10.40
2024-03-06T01:57:14.442Z,10.40
2024-03-06T01:59:43.657Z,10.40
2024-03-06T02:02:13.208Z,10.40
2024-03-06T02:04:41.306Z,10.40
2024-03-06T02:07:16.279Z,10.30
2024-03-06T02:09:47.154Z,10.30
2024-03-06T02:12:17.196Z,10.40
2024-03-06T02:14:47.150Z,10.30
2024-03-06T02:17:17.255Z,10.30
2024-03-06T02:19:46.896Z,10.30
2024-03-06T02:22:18.584Z,10.30
2024-03-06T02:24:50.098Z,10.30
2024-03-06T02:27:18.446Z,10.30
2024-03-06T02:29:47.094Z,10.30
2024-03-06T02:32:18.359Z,10.30
2024-03-06T02:34:47.136Z,10.30
2024-03-06T02:37:16.190Z,10.30
2024-03-06T02:39:48.500Z,10.30
2024-03-06T02:42:18.215Z,10.30
2024-03-06T02:44:47.185Z,10.30
2024-03-06T02:47:16.453Z,10.30
2024-03-06T02:49:48.054Z,10.30
2024-03-06T02:52:17.101Z,10.30
2024-03-06T02:54:45.283Z,10.30
2024-03-06T02:57:14.601Z,10.20
2024-03-06T02:59:43.066Z,10.30
2024-03-06T03:02:13.002Z,10.30
2024-03-06T03:04:43.071Z,10.30
2024-03-06T03:07:13.209Z,10.30
2024-03-06T03:09:43.133Z,10.30
2024-03-06T03:12:14.359Z,10.30
2024-03-06T03:14:44.242Z,10.20
2024-03-06T03:17:13.833Z,10.30
2024-03-06T03:19:43.145Z,10.20
2024-03-06T03:22:14.416Z,10.20
2024-03-06T03:24:44.238Z,10.20
2024-03-06T03:27:14.335Z,10.20
2024-03-06T03:29:42.946Z,10.20
2024-03-06T03:32:12.082Z,10.20
2024-03-06T03:34:41.724Z,10.20
2024-03-06T03:37:14.845Z,10.20
2024-03-06T03:39:43.369Z,10.20
2024-03-06T03:42:11.434Z,10.20
2024-03-06T03:44:43.347Z,10.20
2024-03-06T03:47:13.583Z,10.20
2024-03-06T03:49:44.765Z,10.20
2024-03-06T03:52:16.512Z,10.20
2024-03-06T03:54:46.906Z,10.20
2024-03-06T03:57:15.948Z,10.20
2024-03-06T03:59:55.048Z,10.20
2024-03-06T04:02:27.381Z,10.20
2024-03-06T04:04:56.836Z,10.10
2024-03-06T04:07:26.054Z,10.10
2024-03-06T04:09:59.840Z,10.10
2024-03-06T04:12:28.056Z,10.10
2024-03-06T04:14:59.018Z,10.10
2024-03-06T04:17:27.678Z,10.10
2024-03-06T04:19:58.124Z,10.10
2024-03-06T04:22:28.240Z,10.10
2024-03-06T04:24:59.875Z,10.10
2024-03-06T04:27:28.233Z,10.10
2024-03-06T04:29:59.308Z,10.10
2024-03-06T04:32:28.046Z,10.10
2024-03-06T04:34:57.733Z,10.10
2024-03-06T04:37:30.928Z,10.10
2024-03-06T04:39:59.427Z,10.10
2024-03-06T04:42:28.247Z,10.10
2024-03-06T04:44:57.660Z,10.10
2024-03-06T04:47:30.554Z,10.00
2024-03-06T04:49:59.348Z,10.10
2024-03-06T04:52:27.580Z,10.00
2024-03-06T04:54:58.088Z,10.10
2024-03-06T04:57:29.197Z,10.00
2024-03-06T04:59:59.489Z,10.00
2024-03-06T05:02:29.571Z,10.00
2024-03-06T05:58:08.618Z,9.90
2024-03-06T06:00:37.893Z,9.90
2024-03-06T06:03:09.248Z,9.90
2024-03-06T06:05:38.673Z,9.90
2024-03-06T06:08:09.483Z,9.90
2024-03-06T06:10:38.693Z,9.90
2024-03-06T06:13:07.301Z,9.90
2024-03-06T06:15:35.658Z,9.90
2024-03-06T06:18:03.978Z,9.90
2024-03-06T06:20:32.486Z,9.90
2024-03-06T06:23:03.091Z,9.90
2024-03-06T06:25:33.819Z,9.90
2024-03-06T06:28:02.101Z,9.80
2024-03-06T06:30:31.988Z,9.80
2024-03-06T06:33:02.198Z,9.80
2024-03-06T06:35:30.418Z,9.80
2024-03-06T06:37:58.668Z,9.80
2024-03-06T06:40:26.786Z,9.80
2024-03-06T06:42:57.379Z,9.80
2024-03-06T06:45:27.515Z,9.80
2024-03-06T06:47:56.723Z,9.80
2024-03-06T06:50:28.413Z,9.80
2024-03-06T06:52:58.101Z,9.80
2024-03-06T06:55:26.344Z,9.80
2024-03-06T06:57:54.822Z,9.80
2024-03-06T07:00:29.580Z,9.80
2024-03-06T07:02:59.557Z,9.80
2024-03-06T07:05:27.770Z,9.80
2024-03-06T07:07:58.144Z,9.80
2024-03-06T07:10:28.831Z,9.80
2024-03-06T07:12:58.006Z,9.80
2024-03-06T07:15:29.985Z,9.80
2024-03-06T07:17:58.712Z,9.70
2024-03-06T07:20:28.146Z,9.80
2024-03-06T07:22:57.477Z,9.80
2024-03-06T07:25:27.728Z,9.70
2024-03-06T07:27:57.244Z,9.80
2024-03-06T07:30:31.059Z,9.80
2024-03-06T07:32:59.396Z,9.70
2024-03-06T07:35:28.037Z,9.70
2024-03-06T07:37:58.254Z,9.70
2024-03-06T07:40:28.093Z,9.70
2024-03-06T07:42:57.311Z,9.70
2024-03-06T07:45:26.178Z,9.70
2024-03-06T07:47:59.848Z,9.70
2024-03-06T07:50:28.524Z,9.70
2024-03-06T07:52:58.105Z,9.70
2024-03-06T07:55:27.980Z,9.70
2024-03-06T07:57:58.057Z,9.70
2024-03-06T08:00:28.412Z,9.70
2024-03-06T08:02:56.547Z,9.70
2024-03-06T08:05:29.240Z,9.70
2024-03-06T08:07:57.573Z,9.70
2024-03-06T08:10:26.725Z,9.70
2024-03-06T08:12:56.921Z,9.70
2024-03-06T08:15:27.189Z,9.70
2024-03-06T08:17:56.596Z,9.70
2024-03-06T08:20:28.884Z,9.80
2024-03-06T08:22:59.011Z,9.80
2024-03-06T08:25:28.632Z,9.80
2024-03-06T08:27:58.282Z,9.80
2024-03-06T08:30:27.494Z,9.80
2024-03-06T08:32:58.512Z,9.80
2024-03-06T08:35:29.980Z,9.80
2024-03-06T08:37:58.058Z,9.80
2024-03-06T08:40:28.163Z,9.80
2024-03-06T08:42:57.530Z,9.80
2024-03-06T08:45:27.134Z,9.80
2024-03-06T08:47:56.724Z,9.80
2024-03-06T08:50:30.364Z,9.80
2024-03-06T08:52:59.285Z,9.80
2024-03-06T08:55:27.451Z,9.80
2024-03-06T08:57:58.062Z,9.80
2024-03-06T09:00:27.930Z,9.80
2024-03-06T09:02:57.918Z,9.80
2024-03-06T09:05:29.399Z,9.80
2024-03-06T09:08:01.253Z,9.80
2024-03-06T09:10:32.380Z,9.80
2024-03-06T09:13:01.888Z,9.80
2024-03-06T09:15:31.314Z,9.80
2024-03-06T09:17:59.732Z,9.80
2024-03-06T09:20:29.276Z,9.80
2024-03-06T09:23:00.265Z,9.80
2024-03-06T09:25:30.478Z,9.80
2024-03-06T09:28:01.038Z,9.80
2024-03-06T09:30:30.112Z,9.80
2024-03-06T09:32:58.309Z,9.80
2024-03-06T09:35:29.396Z,9.80
2024-03-06T09:37:59.204Z,9.80
2024-03-06T09:40:28.078Z,9.90
2024-03-06T09:42:58.085Z,9.90
2024-03-06T09:45:28.064Z,9.90
2024-03-06T09:47:58.286Z,9.80
2024-03-06T09:50:30.098Z,9.90
2024-03-06T09:52:58.669Z,9.90
2024-03-06T09:55:28.424Z,9.90
2024-03-06T09:57:58.100Z,9.90
2024-03-06T10:00:27.538Z,9.90
2024-03-06T10:03:01.745Z,9.90
2024-03-06T10:05:34.458Z,9.90
2024-03-06T10:08:05.096Z,9.90
2024-03-06T10:10:33.561Z,9.90
2024-03-06T10:13:04.595Z,9.90
2024-03-06T10:15:37.351Z,9.90
2024-03-06T10:18:16.298Z,9.80
2024-03-06T10:20:47.139Z,9.80
2024-03-06T10:23:19.116Z,9.90
2024-03-06T10:25:51.763Z,9.90
2024-03-06T10:28:25.280Z,9.90
2024-03-06T10:31:08.499Z,9.90
2024-03-06T10:33:38.613Z,9.90
2024-03-06T10:36:13.509Z,9.80
2024-03-06T10:38:46.133Z,9.90
2024-03-06T10:41:18.458Z,9.80
2024-03-06T10:43:52.522Z,9.90
2024-03-06T10:46:25.321Z,9.90
2024-03-06T10:48:54.725Z,9.80
2024-03-06T10:51:30.943Z,9.80
2024-03-06T10:54:00.191Z,9.80
2024-03-06T10:56:28.653Z,9.80
2024-03-06T10:59:00.135Z,9.80
2024-03-06T11:01:29.957Z,9.80
2024-03-06T11:04:00.599Z,9.80
2024-03-06T11:06:30.079Z,9.80
2024-03-06T11:08:58.303Z,9.80
2024-03-06T11:11:28.221Z,9.80
2024-03-06T11:14:01.977Z,9.80
2024-03-06T11:16:34.362Z,9.80
2024-03-06T11:19:09.767Z,9.80
2024-03-06T11:21:49.675Z,9.80
2024-03-06T11:24:20.845Z,9.80
2024-03-06T11:26:50.455Z,9.80
2024-03-06T11:29:20.048Z,9.80
2024-03-06T11:32:07.892Z,9.80
2024-03-06T11:34:38.683Z,9.80
2024-03-06T11:37:10.989Z,9.80
2024-03-06T11:39:45.771Z,9.80
2024-03-06T11:42:15.780Z,9.80
2024-03-06T11:44:56.963Z,9.80
2024-03-06T11:47:28.400Z,9.80
2024-03-06T11:49:57.456Z,9.80
2024-03-06T11:52:29.571Z,9.80
2024-03-06T11:54:58.160Z,9.80
2024-03-06T11:57:27.371Z,9.80
2024-03-06T11:59:56.607Z,9.80
2024-03-06T12:02:28.237Z,9.80
2024-03-06T12:04:58.125Z,9.80
2024-03-06T12:07:27.339Z,9.80
2024-03-06T12:09:59.813Z,9.80
2024-03-06T12:12:27.878Z,9.80
2024-03-06T12:15:01.614Z,9.80
2024-03-06T12:17:30.891Z,9.80
2024-03-06T12:19:58.999Z,9.80
2024-03-06T12:22:28.417Z,9.80
2024-03-06T12:25:02.540Z,9.80
2024-03-06T12:27:32.243Z,9.80
2024-03-06T12:30:02.144Z,9.80
2024-03-06T12:32:31.541Z,9.80
2024-03-06T12:35:02.315Z,9.80
2024-03-06T12:37:33.260Z,9.80
2024-03-06T12:40:06.008Z,9.80
2024-03-06T12:42:35.083Z,9.80
2024-03-06T12:45:04.384Z,9.80
2024-03-06T12:47:32.706Z,9.80
2024-03-06T12:50:02.034Z,9.80
2024-03-06T12:52:30.290Z,9.80
2024-03-06T12:54:58.704Z,9.90
2024-03-06T12:57:29.758Z,9.90
2024-03-06T12:59:58.064Z,9.90
2024-03-06T13:02:26.744Z,9.90
2024-03-06T13:04:57.392Z,9.90
2024-03-06T13:07:28.439Z,9.80
2024-03-06T13:09:57.570Z,9.90
2024-03-06T13:12:29.549Z,9.90
2024-03-06T13:14:57.705Z,9.80
2024-03-06T13:17:30.139Z,9.90
2024-03-06T13:19:58.310Z,9.90
2024-03-06T13:22:27.213Z,9.90
2024-03-06T13:24:58.222Z,9.90
2024-03-06T13:27:27.193Z,9.90
2024-03-06T13:30:00.754Z,9.80
2024-03-06T13:32:31.160Z,9.90
2024-03-06T13:34:59.252Z,9.90
2024-03-06T13:37:28.123Z,9.90
2024-03-06T13:40:01.682Z,9.90
2024-03-06T13:42:31.004Z,9.90
2024-03-06T13:45:00.571Z,9.90
2024-03-06T13:47:28.756Z,9.90
2024-03-06T13:49:58.013Z,9.90
2024-03-06T13:52:27.000Z,9.90
2024-03-06T13:54:58.064Z,9.90
2024-03-06T13:57:28.065Z,9.90
2024-03-06T13:59:58.413Z,9.90
2024-03-06T14:02:27.892Z,9.90
2024-03-06T14:04:57.921Z,9.90
2024-03-06T14:07:28.437Z,9.90
2024-03-06T14:09:58.129Z,10.00
2024-03-06T14:12:28.168Z,9.90
2024-03-06T14:14:58.189Z,9.90
2024-03-06T14:17:29.621Z,10.00
2024-03-06T14:19:58.150Z,10.00
2024-03-06T14:22:26.342Z,9.90
2024-03-06T14:24:55.576Z,10.00
2024-03-06T14:27:24.739Z,10.00
2024-03-06T14:29:56.435Z,10.00
2024-03-06T14:32:27.709Z,10.00
2024-03-06T14:34:58.075Z,10.00
2024-03-06T14:37:27.121Z,10.00
2024-03-06T14:39:56.228Z,9.90
2024-03-06T14:42:25.486Z,9.90
2024-03-06T14:44:57.362Z,9.90
2024-03-06T14:47:28.591Z,10.00
2024-03-06T14:49:59.061Z,10.00
2024-03-06T14:52:28.133Z,10.00
2024-03-06T14:54:58.185Z,10.00
2024-03-06T14:57:28.438Z,10.00
2024-03-06T14:59:59.277Z,10.00
2024-03-06T15:02:28.133Z,10.00
2024-03-06T15:04:59.973Z,10.00
2024-03-06T15:07:28.076Z,10.00
2024-03-06T15:09:58.888Z,10.00
2024-03-06T15:12:27.425Z,10.00
2024-03-06T15:14:58.696Z,10.00
2024-03-06T15:17:27.981Z,10.00
2024-03-06T15:19:59.654Z,10.10
2024-03-06T15:22:27.766Z,10.10
2024-03-06T15:24:58.113Z,10.00
2024-03-06T15:27:26.407Z,10.10
2024-03-06T15:29:58.092Z,10.10
2024-03-06T15:32:26.309Z,10.10
2024-03-06T15:34:59.010Z,10.10
2024-03-06T15:37:28.797Z,10.10
2024-03-06T15:39:58.593Z,10.10
2024-03-06T15:42:27.314Z,10.10
2024-03-06T15:44:58.122Z,10.10
2024-03-06T15:47:27.234Z,10.10
2024-03-06T15:49:56.645Z,10.10
2024-03-06T15:52:25.626Z,10.10
2024-03-06T15:54:57.707Z,10.10
2024-03-06T15:57:28.233Z,10.10
2024-03-06T15:59:57.341Z,10.10
2024-03-06T16:02:28.209Z,10.10
2024-03-06T16:04:58.186Z,10.10
2024-03-06T16:07:28.463Z,10.10
2024-03-06T16:09:58.032Z,10.20
2024-03-06T16:12:28.267Z,10.10
2024-03-06T16:14:57.416Z,10.20
2024-03-06T16:17:27.288Z,10.20
2024-03-06T16:19:56.622Z,10.20
2024-03-06T16:22:28.350Z,10.20
2024-03-06T16:24:57.646Z,10.20
2024-03-06T16:27:25.684Z,10.20
2024-03-06T16:29:57.443Z,10.20
2024-03-06T16:32:27.016Z,10.20
2024-03-06T16:34:58.172Z,10.20
2024-03-06T16:37:28.132Z,10.20
2024-03-06T16:39:57.596Z,10.20
2024-03-06T16:42:25.837Z,10.20
2024-03-06T16:44:53.872Z,10.20
2024-03-06T16:47:25.660Z,10.20
2024-03-06T16:49:53.815Z,10.20
2024-03-06T16:52:23.519Z,10.20
2024-03-06T16:54:52.327Z,10.20
2024-03-06T16:57:22.780Z,10.30
2024-03-06T16:59:50.848Z,10.20
2024-03-06T17:02:19.038Z,10.30
2024-03-06T17:04:47.296Z,10.30
2024-03-06T17:07:16.435Z,10.20
2024-03-06T17:09:45.615Z,10.30
2024-03-06T17:12:13.924Z,10.30
2024-03-06T17:14:44.663Z,10.30
2024-03-06T17:17:13.110Z,10.30
2024-03-06T17:19:41.609Z,10.30
2024-03-06T17:22:10.957Z,10.30
2024-03-06T17:24:40.343Z,10.30
2024-03-06T17:27:08.721Z,10.30
2024-03-06T17:29:38.900Z,10.30
2024-03-06T17:32:10.458Z,10.30
2024-03-06T17:34:38.677Z,10.30
2024-03-06T17:37:08.401Z,10.30
2024-03-06T17:39:37.459Z,10.30
2024-03-06T17:42:07.462Z,10.30
2024-03-06T17:44:36.639Z,10.30
2024-03-06T17:47:05.774Z,10.30
2024-03-06T17:49:36.119Z,10.30
2024-03-06T17:52:07.241Z,10.30
2024-03-06T17:54:36.809Z,10.30
2024-03-06T17:57:07.575Z,10.30
2024-03-06T17:59:35.813Z,10.30
2024-03-06T18:02:05.272Z,10.30
2024-03-06T18:04:33.367Z,10.30
2024-03-06T18:07:03.702Z,10.30
2024-03-06T18:09:32.356Z,10.30
2024-03-06T18:12:02.428Z,10.30
2024-03-06T18:14:30.906Z,10.30
2024-03-06T18:16:59.160Z,10.30
2024-03-06T18:19:27.364Z,10.40
2024-03-06T18:21:56.315Z,10.30
2024-03-06T18:24:29.472Z,10.30
2024-03-06T18:26:59.618Z,10.30
2024-03-06T18:29:29.549Z,10.40
2024-03-06T18:31:58.417Z,10.40
2024-03-06T18:34:33.193Z,10.40
2024-03-06T18:37:01.277Z,10.30
2024-03-06T18:39:30.692Z,10.40
2024-03-06T18:42:12.268Z,10.40
2024-03-06T18:44:48.092Z,10.30
2024-03-06T18:47:16.305Z,10.40
2024-03-06T18:49:45.517Z,10.40
2024-03-06T18:52:13.512Z,10.30
2024-03-06T18:54:44.174Z,10.40
2024-03-06T18:57:12.176Z,10.40
2024-03-06T18:59:41.641Z,10.40
2024-03-06T19:02:12.641Z,10.40
2024-03-06T19:04:43.917Z,10.40
2024-03-06T19:07:13.660Z,10.40
2024-03-06T19:09:45.499Z,10.40
2024-03-06T19:12:13.773Z,10.40
2024-03-06T19:14:43.356Z,10.40
2024-03-06T19:17:13.213Z,10.40
2024-03-06T19:19:42.280Z,10.40
2024-03-06T19:22:10.968Z,10.40
2024-03-06T19:24:39.955Z,10.40
2024-03-06T19:27:09.713Z,10.40
2024-03-06T19:29:38.855Z,10.40
2024-03-06T19:32:11.282Z,10.40
2024-03-06T19:34:43.093Z,10.40
2024-03-06T19:37:11.092Z,10.40
2024-03-06T19:39:40.098Z,10.40
2024-03-06T19:42:10.586Z,10.40
2024-03-06T19:44:43.175Z,10.40
2024-03-06T19:47:12.310Z,10.40
2024-03-06T19:49:43.151Z,10.40
2024-03-06T19:52:13.716Z,10.40
2024-03-06T19:54:43.520Z,10.40
2024-03-06T19:57:14.425Z,10.40
2024-03-06T19:59:43.124Z,10.40
2024-03-06T20:02:11.392Z,10.40
2024-03-06T20:04:39.456Z,10.40
2024-03-06T20:07:08.190Z,10.40
2024-03-06T20:09:37.207Z,10.40
2024-03-06T20:12:06.369Z,10.40
2024-03-06T20:14:37.045Z,10.40
2024-03-06T20:17:06.089Z,10.40
2024-03-06T20:19:35.254Z,10.40
2024-03-06T20:22:03.866Z,10.40
2024-03-06T20:24:32.328Z,10.40
2024-03-06T20:27:03.288Z,10.40
2024-03-06T20:29:32.361Z,10.40
2024-03-06T20:32:03.749Z,10.40
2024-03-06T20:34:32.317Z,10.40
2024-03-06T20:37:00.277Z,10.40
2024-03-06T20:39:28.267Z,10.40
2024-03-06T20:41:58.566Z,10.40
2024-03-06T20:44:26.938Z,10.40
2024-03-06T20:46:59.397Z,10.40
2024-03-06T20:49:29.434Z,10.40
2024-03-06T20:51:58.239Z,10.50
2024-03-06T20:54:28.102Z,10.40
2024-03-06T20:56:58.266Z,10.50
2024-03-06T20:59:28.205Z,10.50
2024-03-06T21:01:57.285Z,10.50
2024-03-06T21:04:26.351Z,10.40
2024-03-06T21:06:56.729Z,10.50
2024-03-06T21:09:30.265Z,10.50
2024-03-06T21:11:58.538Z,10.50
2024-03-06T21:14:28.128Z,10.50
2024-03-06T21:16:56.153Z,10.50
2024-03-06T21:19:25.280Z,10.50
2024-03-06T21:21:58.206Z,10.50
2024-03-06T21:24:28.456Z,10.40
2024-03-06T21:26:58.231Z,10.50
2024-03-06T21:29:28.077Z,10.40
2024-03-06T21:31:57.290Z,10.40
2024-03-06T21:34:25.775Z,10.50
2024-03-06T21:36:59.057Z,10.50
2024-03-06T21:39:28.045Z,10.40
2024-03-06T21:41:58.158Z,10.50
2024-03-06T21:44:29.027Z,10.50
2024-03-06T21:46:58.144Z,10.50
2024-03-06T21:49:31.967Z,10.50
2024-03-06T21:52:02.291Z,10.40
2024-03-06T21:54:32.461Z,10.50
2024-03-06T21:57:06.208Z,10.50
2024-03-06T21:59:36.921Z,10.50
2024-03-06T22:02:07.188Z,10.50
2024-03-06T22:04:38.165Z,10.50
2024-03-06T22:07:09.514Z,10.50
2024-03-06T22:09:38.665Z,10.50
2024-03-06T22:12:09.121Z,10.50
2024-03-06T22:14:44.699Z,10.50
2024-03-06T22:17:12.980Z,10.50
2024-03-06T22:19:42.186Z,10.50
2024-03-06T22:22:16.990Z,10.50
2024-03-06T22:24:47.322Z,10.40
2024-03-06T22:27:16.324Z,10.40
2024-03-06T22:29:44.794Z,10.50
2024-03-06T22:32:13.193Z,10.50
2024-03-06T22:34:43.134Z,10.50
2024-03-06T22:37:11.447Z,10.40
2024-03-06T22:39:43.665Z,10.40
2024-03-06T22:42:13.597Z,10.50
2024-03-06T22:44:42.623Z,10.40
2024-03-06T22:47:11.888Z,10.40
2024-03-06T22:49:41.302Z,10.50
2024-03-06T22:52:12.967Z,10.50
2024-03-06T22:54:44.471Z,10.40
2024-03-06T22:57:13.192Z,10.50
2024-03-06T22:59:43.154Z,10.50
2024-03-06T23:02:12.275Z,10.40
2024-03-06T23:04:42.207Z,10.50
2024-03-06T23:07:10.207Z,10.40
2024-03-06T23:09:38.174Z,10.40
2024-03-06T23:12:10.874Z,10.40
2024-03-06T23:14:40.988Z,10.40
2024-03-06T23:17:10.152Z,10.40
2024-03-06T23:19:38.200Z,10.40
2024-03-06T23:22:07.265Z,10.40
2024-03-06T23:24:36.320Z,10.40
2024-03-06T23:27:08.618Z,10.40
2024-03-06T23:29:38.872Z,10.40
2024-03-06T23:32:09.009Z,10.40
2024-03-06T23:34:37.986Z,10.40
2024-03-06T23:37:08.400Z,10.40
2024-03-06T23:39:37.955Z,10.40
2024-03-06T23:42:08.652Z,10.40
2024-03-06T23:44:38.441Z,10.40
2024-03-06T23:47:07.755Z,10.40
2024-03-06T23:49:36.832Z,10.40
2024-03-06T23:52:04.937Z,10.40
2024-03-06T23:54:32.899Z,10.40
2024-03-06T23:57:02.650Z,10.40
2024-03-06T23:59:33.716Z,10.40
